Temp: 8.7°C   Baro: 1005.8mb
  Wind: 4.9mph   Dir: W (268°)
  Rain: 0.6mm (0.0mm/hr)
  Sun: 0W/m2  Humidity: 93%

Historic data

Bath Spa Weather Station Historical Data
Daily Summary for October 6, 2022 Units:  Both    English   Metric
Daily Weekly Monthly Yearly Custom
  High: Low: Average:
Temperature: 64.7 °F /  18.2 °C 45.3 °F /  7.4 °C 55.1 °F /  12.8 °C
Dew Point: 54.3 °F /  12.4 °C 42.3 °F /  5.7 °C 49.1 °F /  9.5 °C
Humidity: 90% 66.8% 81%
Wind Speed: 10.2mph /  16.4km/h - 3.8mph /  6.1km/h
Wind Gust: 17mph /  27.4km/h - -
Wind- - WSW
Pressure: 30.40 in /  1029.3 hPa 30.24 in /  1023.9 hPa -
Precipitation: 0.00 in /  0 mm    
Historical Graphs
 
 
Tabular Data for October 6, 2022
Time Temperature Dew Point Pressure Wind Wind Speed Wind Gust Humidity Rainfall Rate (Hourly) solar
00:09 49.3 °F /  9.6 °C 44.1 °F /  6.7 °C 30.24in /  1023.9hPa West 1.8mph /  2.9km/h 4mph /  6.4km/h 82% 0.00in /  0mm 0 W/m2
00:14 49.3 °F /  9.6 °C 44.1 °F /  6.7 °C 30.24in /  1023.9hPa West 3mph /  4.8km/h 4mph /  6.4km/h 82% 0.00in /  0mm 0 W/m2
00:19 49.5 °F /  9.7 °C 44.4 °F /  6.9 °C 30.24in /  1023.9hPa West 2.6mph /  4.2km/h 4mph /  6.4km/h 82.6% 0.00in /  0mm 0 W/m2
00:24 49.5 °F /  9.7 °C 44.5 °F /  6.9 °C 30.24in /  1023.9hPa West 2.5mph /  4km/h 4mph /  6.4km/h 82.8% 0.00in /  0mm 0 W/m2
00:29 49.3 °F /  9.6 °C 44.3 °F /  6.8 °C 30.24in /  1023.9hPa West 2.5mph /  4km/h 4mph /  6.4km/h 82.8% 0.00in /  0mm 0 W/m2
00:34 49.3 °F /  9.6 °C 44.4 °F /  6.9 °C 30.24in /  1023.9hPa West 2.4mph /  3.9km/h 4mph /  6.4km/h 83% 0.00in /  0mm 0 W/m2
00:39 49.3 °F /  9.6 °C 44.4 °F /  6.9 °C 30.25in /  1024.3hPa West 2.4mph /  3.9km/h 4mph /  6.4km/h 83% 0.00in /  0mm 0 W/m2
00:44 49.5 °F /  9.7 °C 44.6 °F /  7 °C 30.25in /  1024.3hPa West 2.5mph /  4km/h 4mph /  6.4km/h 83% 0.00in /  0mm 0 W/m2
00:49 49.4 °F /  9.7 °C 44.5 °F /  6.9 °C 30.25in /  1024.3hPa West 2.7mph /  4.3km/h 4mph /  6.4km/h 83% 0.00in /  0mm 0 W/m2
00:54 49.3 °F /  9.6 °C 44.4 °F /  6.9 °C 30.25in /  1024.3hPa West 2.2mph /  3.5km/h 4mph /  6.4km/h 83% 0.00in /  0mm 0 W/m2
00:59 49.3 °F /  9.6 °C 44.4 °F /  6.9 °C 30.26in /  1024.6hPa West 2.3mph /  3.7km/h 4mph /  6.4km/h 83% 0.00in /  0mm 0 W/m2
01:04 49.1 °F /  9.5 °C 44.2 °F /  6.8 °C 30.26in /  1024.6hPa West 2.5mph /  4km/h 4mph /  6.4km/h 83% 0.00in /  0mm 0 W/m2
01:09 48.9 °F /  9.4 °C 44.1 °F /  6.7 °C 30.26in /  1024.6hPa WNW 2.9mph /  4.7km/h 6mph /  9.7km/h 83% 0.00in /  0mm 0 W/m2
01:14 48.9 °F /  9.4 °C 44.1 °F /  6.7 °C 30.26in /  1024.6hPa NW 2mph /  3.2km/h 6mph /  9.7km/h 83% 0.00in /  0mm 0 W/m2
01:19 48.7 °F /  9.3 °C 44.1 °F /  6.7 °C 30.26in /  1024.6hPa NW 2.8mph /  4.5km/h 6mph /  9.7km/h 83.6% 0.00in /  0mm 0 W/m2
01:24 48.7 °F /  9.3 °C 44.1 °F /  6.7 °C 30.26in /  1024.6hPa NW 2.4mph /  3.9km/h 4mph /  6.4km/h 84% 0.00in /  0mm 0 W/m2
01:29 48.7 °F /  9.3 °C 44.1 °F /  6.7 °C 30.27in /  1024.9hPa NW 2.2mph /  3.5km/h 5mph /  8km/h 84% 0.00in /  0mm 0 W/m2
01:34 48.7 °F /  9.3 °C 44.1 °F /  6.7 °C 30.27in /  1024.9hPa NW 2.6mph /  4.2km/h 5mph /  8km/h 84% 0.00in /  0mm 0 W/m2
01:39 48.6 °F /  9.2 °C 44 °F /  6.7 °C 30.27in /  1024.9hPa NW 2.9mph /  4.7km/h 4mph /  6.4km/h 84% 0.00in /  0mm 0 W/m2
01:44 48.7 °F /  9.3 °C 44 °F /  6.7 °C 30.27in /  1024.9hPa NW 2.3mph /  3.7km/h 4mph /  6.4km/h 84% 0.00in /  0mm 0 W/m2
01:49 48.6 °F /  9.2 °C 44 °F /  6.7 °C 30.27in /  1024.9hPa NW 2.4mph /  3.9km/h 4mph /  6.4km/h 84% 0.00in /  0mm 0 W/m2
01:54 48.7 °F /  9.3 °C 44.1 °F /  6.7 °C 30.27in /  1024.9hPa NW 2.4mph /  3.9km/h 4mph /  6.4km/h 84% 0.00in /  0mm 0 W/m2
01:59 48.6 °F /  9.2 °C 43.9 °F /  6.6 °C 30.28in /  1025.3hPa NW 2mph /  3.2km/h 4mph /  6.4km/h 84% 0.00in /  0mm 0 W/m2
02:04 48.4 °F /  9.1 °C 43.7 °F /  6.5 °C 30.27in /  1024.9hPa NW 0.6mph /  1km/h 3mph /  4.8km/h 84% 0.00in /  0mm 0 W/m2
02:09 48.3 °F /  9.1 °C 43.9 °F /  6.6 °C 30.28in /  1025.3hPa NW 0.7mph /  1.1km/h 3mph /  4.8km/h 84.8% 0.00in /  0mm 0 W/m2
02:14 48 °F /  8.9 °C 43.7 °F /  6.5 °C 30.28in /  1025.3hPa NW 0.6mph /  1km/h 3mph /  4.8km/h 85% 0.00in /  0mm 0 W/m2
02:19 47.7 °F /  8.7 °C 43.4 °F /  6.3 °C 30.28in /  1025.3hPa NW 1.2mph /  1.9km/h 3mph /  4.8km/h 85% 0.00in /  0mm 0 W/m2
02:24 47.5 °F /  8.6 °C 43.2 °F /  6.2 °C 30.28in /  1025.3hPa Calm   2mph /  3.2km/h 85% 0.00in /  0mm 0 W/m2
02:29 47.2 °F /  8.4 °C 42.9 °F /  6.1 °C 30.28in /  1025.3hPa Calm     85% 0.00in /  0mm 0 W/m2
02:34 47 °F /  8.3 °C 42.9 °F /  6.1 °C 30.28in /  1025.3hPa NW 0.8mph /  1.3km/h 3mph /  4.8km/h 85.6% 0.00in /  0mm 0 W/m2
02:39 46.9 °F /  8.3 °C 42.9 °F /  6.1 °C 30.28in /  1025.3hPa NW 1.6mph /  2.6km/h 3mph /  4.8km/h 86% 0.00in /  0mm 0 W/m2
02:44 46.8 °F /  8.2 °C 42.8 °F /  6 °C 30.28in /  1025.3hPa Calm   2mph /  3.2km/h 86% 0.00in /  0mm 0 W/m2
02:49 46.6 °F /  8.1 °C 42.6 °F /  5.9 °C 30.28in /  1025.3hPa Calm     86.2% 0.00in /  0mm 0 W/m2
02:54 46.4 °F /  8 °C 42.8 °F /  6 °C 30.29in /  1025.6hPa Calm     87% 0.00in /  0mm 0 W/m2
02:59 46.2 °F /  7.9 °C 42.6 °F /  5.9 °C 30.29in /  1025.6hPa NW 0.9mph /  1.4km/h 2mph /  3.2km/h 87% 0.00in /  0mm 0 W/m2
03:04 46 °F /  7.8 °C 42.4 °F /  5.8 °C 30.29in /  1025.6hPa NW 0.2mph /  0.3km/h 2mph /  3.2km/h 87% 0.00in /  0mm 0 W/m2
03:09 45.9 °F /  7.7 °C 42.4 °F /  5.8 °C 30.29in /  1025.6hPa NW 0.4mph /  0.6km/h 2mph /  3.2km/h 87.2% 0.00in /  0mm 0 W/m2
03:14 45.9 °F /  7.7 °C 42.4 °F /  5.8 °C 30.29in /  1025.6hPa NW 2.4mph /  3.9km/h 3mph /  4.8km/h 87.6% 0.00in /  0mm 0 W/m2
03:19 45.8 °F /  7.7 °C 42.3 °F /  5.7 °C 30.29in /  1025.6hPa NW 0.6mph /  1km/h 3mph /  4.8km/h 88% 0.00in /  0mm 0 W/m2
03:24 45.7 °F /  7.6 °C 42.3 °F /  5.7 °C 30.29in /  1025.6hPa NW 1.6mph /  2.6km/h 3mph /  4.8km/h 88% 0.00in /  0mm 0 W/m2
03:29 45.7 °F /  7.6 °C 42.5 °F /  5.8 °C 30.29in /  1025.6hPa NW 0.6mph /  1km/h 2mph /  3.2km/h 88.8% 0.00in /  0mm 0 W/m2
03:34 45.7 °F /  7.6 °C 42.5 °F /  5.8 °C 30.29in /  1025.6hPa NW 0.4mph /  0.6km/h 5mph /  8km/h 88.8% 0.00in /  0mm 0 W/m2
03:39 46 °F /  7.8 °C 43 °F /  6.1 °C 30.29in /  1025.6hPa NW 2.1mph /  3.4km/h 5mph /  8km/h 89% 0.00in /  0mm 0 W/m2
03:44 46 °F /  7.8 °C 43 °F /  6.1 °C 30.30in /  1026hPa NW 1.5mph /  2.4km/h 4mph /  6.4km/h 89% 0.00in /  0mm 0 W/m2
03:49 46.1 °F /  7.8 °C 43.1 °F /  6.2 °C 30.30in /  1026hPa NNW 2.8mph /  4.5km/h 6mph /  9.7km/h 89% 0.00in /  0mm 0 W/m2
03:54 46.1 °F /  7.8 °C 43.1 °F /  6.2 °C 30.30in /  1026hPa NNW 2.9mph /  4.7km/h 5mph /  8km/h 89% 0.00in /  0mm 0 W/m2
03:59 46.6 °F /  8.1 °C 43.5 °F /  6.4 °C 30.30in /  1026hPa NW 3.6mph /  5.8km/h 6mph /  9.7km/h 89% 0.00in /  0mm 0 W/m2
04:04 46.9 °F /  8.3 °C 43.9 °F /  6.6 °C 30.30in /  1026hPa WNW 2.1mph /  3.4km/h 6mph /  9.7km/h 89% 0.00in /  0mm 0 W/m2
04:09 46.7 °F /  8.2 °C 43.6 °F /  6.4 °C 30.30in /  1026hPa WNW 2.7mph /  4.3km/h 4mph /  6.4km/h 89% 0.00in /  0mm 0 W/m2
04:14 46.6 °F /  8.1 °C 43.5 °F /  6.4 °C 30.30in /  1026hPa WNW 3.6mph /  5.8km/h 5mph /  8km/h 89% 0.00in /  0mm 0 W/m2
04:19 46.6 °F /  8.1 °C 43.5 °F /  6.4 °C 30.30in /  1026hPa WNW 3.6mph /  5.8km/h 6mph /  9.7km/h 89% 0.00in /  0mm 0 W/m2
04:24 46.6 °F /  8.1 °C 43.5 °F /  6.4 °C 30.30in /  1026hPa NW 3mph /  4.8km/h 6mph /  9.7km/h 89% 0.00in /  0mm 0 W/m2
04:29 46.6 °F /  8.1 °C 43.5 °F /  6.4 °C 30.31in /  1026.3hPa NW 2.4mph /  3.9km/h 4mph /  6.4km/h 89% 0.00in /  0mm 0 W/m2
04:34 46.3 °F /  7.9 °C 43.3 °F /  6.3 °C 30.31in /  1026.3hPa NW 2.4mph /  3.9km/h 4mph /  6.4km/h 89% 0.00in /  0mm 0 W/m2
04:39 46.2 °F /  7.9 °C 43.2 °F /  6.2 °C 30.31in /  1026.3hPa NW 2mph /  3.2km/h 4mph /  6.4km/h 89% 0.00in /  0mm 0 W/m2
04:44 46.1 °F /  7.8 °C 43.1 °F /  6.2 °C 30.31in /  1026.3hPa NW 1.7mph /  2.7km/h 3mph /  4.8km/h 89% 0.00in /  0mm 0 W/m2
04:49 46 °F /  7.8 °C 43 °F /  6.1 °C 30.31in /  1026.3hPa NW 1.7mph /  2.7km/h 4mph /  6.4km/h 89% 0.00in /  0mm 0 W/m2
04:54 46.1 °F /  7.8 °C 43.3 °F /  6.3 °C 30.31in /  1026.3hPa NW 2.2mph /  3.5km/h 5mph /  8km/h 89.6% 0.00in /  0mm 0 W/m2
04:59 46.2 °F /  7.9 °C 43.2 °F /  6.2 °C 30.32in /  1026.6hPa NW 0.9mph /  1.4km/h 3mph /  4.8km/h 89.2% 0.00in /  0mm 0 W/m2
05:04 46 °F /  7.8 °C 43.2 °F /  6.2 °C 30.32in /  1026.6hPa NW 2mph /  3.2km/h 4mph /  6.4km/h 89.6% 0.00in /  0mm 0 W/m2
05:09 45.9 °F /  7.7 °C 43 °F /  6.1 °C 30.32in /  1026.6hPa NW 1.2mph /  1.9km/h 4mph /  6.4km/h 89.4% 0.00in /  0mm 0 W/m2
05:14 45.9 °F /  7.7 °C 42.8 °F /  6 °C 30.32in /  1026.6hPa WNW 1.2mph /  1.9km/h 4mph /  6.4km/h 89% 0.00in /  0mm 0 W/m2
05:19 45.9 °F /  7.7 °C 42.8 °F /  6 °C 30.32in /  1026.6hPa WNW 2.5mph /  4km/h 4mph /  6.4km/h 89% 0.00in /  0mm 0 W/m2
05:24 45.7 °F /  7.6 °C 42.9 °F /  6.1 °C 30.32in /  1026.6hPa WNW 2.5mph /  4km/h 5mph /  8km/h 89.6% 0.00in /  0mm 0 W/m2
05:29 45.7 °F /  7.6 °C 43 °F /  6.1 °C 30.32in /  1026.6hPa WNW 2.4mph /  3.9km/h 4mph /  6.4km/h 90% 0.00in /  0mm 0 W/m2
05:34 45.7 °F /  7.6 °C 43 °F /  6.1 °C 30.32in /  1026.6hPa WNW 2.8mph /  4.5km/h 4mph /  6.4km/h 90% 0.00in /  0mm 0 W/m2
05:39 45.7 °F /  7.6 °C 43 °F /  6.1 °C 30.32in /  1026.6hPa WNW 2.2mph /  3.5km/h 4mph /  6.4km/h 90% 0.00in /  0mm 0 W/m2
05:44 45.6 °F /  7.6 °C 42.9 °F /  6.1 °C 30.32in /  1026.6hPa WNW 0.8mph /  1.3km/h 3mph /  4.8km/h 90% 0.00in /  0mm 0 W/m2
05:49 45.3 °F /  7.4 °C 42.6 °F /  5.9 °C 30.32in /  1026.6hPa WNW 1.7mph /  2.7km/h 4mph /  6.4km/h 90% 0.00in /  0mm 0 W/m2
05:54 45.5 °F /  7.5 °C 42.8 °F /  6 °C 30.33in /  1027hPa WNW 1.9mph /  3.1km/h 5mph /  8km/h 90% 0.00in /  0mm 0 W/m2
05:59 45.7 °F /  7.6 °C 43 °F /  6.1 °C 30.33in /  1027hPa WNW 0.8mph /  1.3km/h 2mph /  3.2km/h 90% 0.00in /  0mm 0 W/m2
06:04 45.8 °F /  7.7 °C 43.1 °F /  6.2 °C 30.33in /  1027hPa WNW 0.4mph /  0.6km/h 3mph /  4.8km/h 90% 0.00in /  0mm 0 W/m2
06:09 46.3 °F /  7.9 °C 43.6 °F /  6.4 °C 30.33in /  1027hPa Calm   2mph /  3.2km/h 90% 0.00in /  0mm 0 W/m2
06:14 46.6 °F /  8.1 °C 43.9 °F /  6.6 °C 30.33in /  1027hPa Calm     90% 0.00in /  0mm 0 W/m2
06:19 46.6 °F /  8.1 °C 43.9 °F /  6.6 °C 30.33in /  1027hPa Calm     90% 0.00in /  0mm 0 W/m2
06:24 46.6 °F /  8.1 °C 43.9 °F /  6.6 °C 30.34in /  1027.3hPa Calm   1mph /  1.6km/h 90% 0.00in /  0mm 0 W/m2
06:29 46.6 °F /  8.1 °C 43.9 °F /  6.6 °C 30.34in /  1027.3hPa Calm     90% 0.00in /  0mm 0 W/m2
06:34 46.5 °F /  8.1 °C 43.8 °F /  6.6 °C 30.34in /  1027.3hPa WNW 0.4mph /  0.6km/h 3mph /  4.8km/h 90% 0.00in /  0mm 0 W/m2
06:39 46.5 °F /  8.1 °C 43.8 °F /  6.6 °C 30.34in /  1027.3hPa WNW 1.6mph /  2.6km/h 3mph /  4.8km/h 90% 0.00in /  0mm 0 W/m2
06:44 46.8 °F /  8.2 °C 44.1 °F /  6.7 °C 30.34in /  1027.3hPa WNW 1mph /  1.6km/h 2mph /  3.2km/h 90% 0.00in /  0mm 0 W/m2
06:49 46.9 °F /  8.3 °C 44.2 °F /  6.8 °C 30.34in /  1027.3hPa WNW 2mph /  3.2km/h 3mph /  4.8km/h 90% 0.00in /  0mm 0 W/m2
06:54 47 °F /  8.3 °C 44.3 °F /  6.8 °C 30.34in /  1027.3hPa WNW 2.5mph /  4km/h 4mph /  6.4km/h 90% 0.00in /  0mm 0 W/m2
06:59 47.3 °F /  8.5 °C 44.4 °F /  6.9 °C 30.34in /  1027.3hPa WNW 1.7mph /  2.7km/h 4mph /  6.4km/h 89.6% 0.00in /  0mm 0 W/m2
07:04 47.5 °F /  8.6 °C 44.6 °F /  7 °C 30.35in /  1027.7hPa WNW 2.7mph /  4.3km/h 5mph /  8km/h 89.4% 0.00in /  0mm 0 W/m2
07:09 47.7 °F /  8.7 °C 44.6 °F /  7 °C 30.35in /  1027.7hPa WNW 2mph /  3.2km/h 4mph /  6.4km/h 89% 0.00in /  0mm 0 W/m2
07:14 47.7 °F /  8.7 °C 44.6 °F /  7 °C 30.35in /  1027.7hPa WNW 1.5mph /  2.4km/h 5mph /  8km/h 89% 0.00in /  0mm 0 W/m2
07:19 47.7 °F /  8.7 °C 44.6 °F /  7 °C 30.35in /  1027.7hPa WNW 1.6mph /  2.6km/h 4mph /  6.4km/h 89% 0.00in /  0mm 5 W/m2
07:24 47.9 °F /  8.8 °C 44.9 °F /  7.2 °C 30.35in /  1027.7hPa North 0.8mph /  1.3km/h 4mph /  6.4km/h 89% 0.00in /  0mm 5 W/m2
07:29 48.2 °F /  9 °C 45.1 °F /  7.3 °C 30.35in /  1027.7hPa NNW 1mph /  1.6km/h 3mph /  4.8km/h 89% 0.00in /  0mm 11 W/m2
07:34 48.4 °F /  9.1 °C 45.3 °F /  7.4 °C 30.35in /  1027.7hPa NNW 1.3mph /  2.1km/h 3mph /  4.8km/h 89% 0.00in /  0mm 12 W/m2
07:39 48.4 °F /  9.1 °C 45.1 °F /  7.3 °C 30.35in /  1027.7hPa NNW 1.8mph /  2.9km/h 2mph /  3.2km/h 88.4% 0.00in /  0mm 16 W/m2
07:44 48.4 °F /  9.1 °C 45 °F /  7.2 °C 30.36in /  1028hPa NNW 1.2mph /  1.9km/h 2mph /  3.2km/h 88% 0.00in /  0mm 25 W/m2
07:49 48.4 °F /  9.1 °C 45 °F /  7.2 °C 30.36in /  1028hPa NNW 1.7mph /  2.7km/h 4mph /  6.4km/h 88% 0.00in /  0mm 39 W/m2
07:54 48.6 °F /  9.2 °C 45.1 °F /  7.3 °C 30.36in /  1028hPa NNW 0.8mph /  1.3km/h 4mph /  6.4km/h 88% 0.00in /  0mm 39 W/m2
07:59 48.9 °F /  9.4 °C 45.5 °F /  7.5 °C 30.36in /  1028hPa NNW 0.4mph /  0.6km/h 3mph /  4.8km/h 88% 0.00in /  0mm 33 W/m2
08:04 49.4 °F /  9.7 °C 46.1 °F /  7.8 °C 30.36in /  1028hPa Calm   3mph /  4.8km/h 88.2% 0.00in /  0mm 39 W/m2
08:09 50.2 °F /  10.1 °C 46.9 °F /  8.3 °C 30.36in /  1028hPa Calm   2mph /  3.2km/h 88.4% 0.00in /  0mm 58 W/m2
08:14 50.2 °F /  10.1 °C 46.8 °F /  8.2 °C 30.36in /  1028hPa Calm   2mph /  3.2km/h 88% 0.00in /  0mm 65 W/m2
08:19 50.3 °F /  10.2 °C 46.8 °F /  8.2 °C 30.36in /  1028hPa NNW 0.2mph /  0.3km/h 2mph /  3.2km/h 88% 0.00in /  0mm 53 W/m2
08:24 50.2 °F /  10.1 °C 46.8 °F /  8.2 °C 30.36in /  1028hPa NNW 0.2mph /  0.3km/h 2mph /  3.2km/h 88% 0.00in /  0mm 44 W/m2
08:29 49.9 °F /  9.9 °C 46.5 °F /  8.1 °C 30.37in /  1028.3hPa NNW 0.6mph /  1km/h 2mph /  3.2km/h 88% 0.00in /  0mm 58 W/m2
08:34 50.3 °F /  10.2 °C 46.9 °F /  8.3 °C 30.37in /  1028.3hPa NNW 0.4mph /  0.6km/h 2mph /  3.2km/h 88% 0.00in /  0mm 109 W/m2
08:39 50.5 °F /  10.3 °C 47 °F /  8.3 °C 30.37in /  1028.3hPa NNW 0.2mph /  0.3km/h 2mph /  3.2km/h 87.8% 0.00in /  0mm 127 W/m2
08:44 51.2 °F /  10.7 °C 47.7 °F /  8.7 °C 30.37in /  1028.3hPa NW 0.4mph /  0.6km/h 4mph /  6.4km/h 88% 0.00in /  0mm 128 W/m2
08:49 51.4 °F /  10.8 °C 47.6 °F /  8.7 °C 30.37in /  1028.3hPa West 2.1mph /  3.4km/h 5mph /  8km/h 87% 0.00in /  0mm 79 W/m2
08:54 51.5 °F /  10.8 °C 47.5 °F /  8.6 °C 30.37in /  1028.3hPa West 1.2mph /  1.9km/h 5mph /  8km/h 86.2% 0.00in /  0mm 97 W/m2
08:59 52 °F /  11.1 °C 47.9 °F /  8.8 °C 30.37in /  1028.3hPa West 3.2mph /  5.1km/h 5mph /  8km/h 86% 0.00in /  0mm 97 W/m2
09:04 52.3 °F /  11.3 °C 48.1 °F /  8.9 °C 30.37in /  1028.3hPa West 4.4mph /  7.1km/h 9mph /  14.5km/h 85.4% 0.00in /  0mm 105 W/m2
09:09 52.6 °F /  11.4 °C 48.2 °F /  9 °C 30.37in /  1028.3hPa WSW 3.8mph /  6.1km/h 7mph /  11.3km/h 84.8% 0.00in /  0mm 114 W/m2
09:14 52.9 °F /  11.6 °C 48.3 °F /  9.1 °C 30.37in /  1028.3hPa WSW 4.9mph /  7.9km/h 8mph /  12.9km/h 84.2% 0.00in /  0mm 141 W/m2
09:19 53.2 °F /  11.8 °C 48.6 °F /  9.2 °C 30.37in /  1028.3hPa West 5mph /  8km/h 8mph /  12.9km/h 84% 0.00in /  0mm 202 W/m2
09:24 53.8 °F /  12.1 °C 48.9 °F /  9.4 °C 30.38in /  1028.7hPa WSW 4.3mph /  6.9km/h 10mph /  16.1km/h 83.6% 0.00in /  0mm 243 W/m2
09:29 54.3 °F /  12.4 °C 49.3 °F /  9.6 °C 30.38in /  1028.7hPa West 5.7mph /  9.2km/h 9mph /  14.5km/h 83% 0.00in /  0mm 236 W/m2
09:34 54.8 °F /  12.7 °C 49.5 °F /  9.7 °C 30.38in /  1028.7hPa SW 4.9mph /  7.9km/h 10mph /  16.1km/h 82.2% 0.00in /  0mm 311 W/m2
09:39 55.1 °F /  12.8 °C 49.4 °F /  9.7 °C 30.38in /  1028.7hPa SW 6mph /  9.7km/h 10mph /  16.1km/h 81% 0.00in /  0mm 309 W/m2
09:44 55.3 °F /  12.9 °C 49.2 °F /  9.6 °C 30.38in /  1028.7hPa WSW 5.2mph /  8.4km/h 11mph /  17.7km/h 80% 0.00in /  0mm 279 W/m2
09:49 55.7 °F /  13.2 °C 49.6 °F /  9.8 °C 30.38in /  1028.7hPa WSW 4.1mph /  6.6km/h 7mph /  11.3km/h 80% 0.00in /  0mm 234 W/m2
09:54 55.8 °F /  13.2 °C 49.5 °F /  9.7 °C 30.38in /  1028.7hPa SW 5.4mph /  8.7km/h 9mph /  14.5km/h 79.6% 0.00in /  0mm 237 W/m2
09:59 55.9 °F /  13.3 °C 49.5 °F /  9.7 °C 30.39in /  1029hPa WSW 4.8mph /  7.7km/h 8mph /  12.9km/h 79% 0.00in /  0mm 260 W/m2
10:03 56.4 °F /  13.6 °C 49.9 °F /  9.9 °C 30.39in /  1029hPa WSW 4.5mph /  7.2km/h 7mph /  11.3km/h 79% 0.00in /  0mm 264 W/m2
10:09 56.5 °F /  13.6 °C 50 °F /  10 °C 30.39in /  1029hPa WSW 4.9mph /  7.9km/h 9mph /  14.5km/h 79% 0.00in /  0mm 265 W/m2
10:14 56.8 °F /  13.8 °C 50.3 °F /  10.2 °C 30.39in /  1029hPa SW 3.4mph /  5.5km/h 7mph /  11.3km/h 79% 0.00in /  0mm 265 W/m2
10:19 56.8 °F /  13.8 °C 50.1 °F /  10.1 °C 30.39in /  1029hPa WSW 5.9mph /  9.5km/h 10mph /  16.1km/h 78.4% 0.00in /  0mm 272 W/m2
10:24 56.7 °F /  13.7 °C 49.8 °F /  9.9 °C 30.39in /  1029hPa SW 6.2mph /  10km/h 10mph /  16.1km/h 78% 0.00in /  0mm 283 W/m2
10:29 56.6 °F /  13.7 °C 49.7 °F /  9.8 °C 30.39in /  1029hPa WSW 5.8mph /  9.3km/h 12mph /  19.3km/h 78% 0.00in /  0mm 294 W/m2
10:34 56.5 °F /  13.6 °C 49.7 °F /  9.8 °C 30.39in /  1029hPa WSW 5mph /  8km/h 15mph /  24.1km/h 78.2% 0.00in /  0mm 301 W/m2
10:39 56.6 °F /  13.7 °C 50.1 °F /  10.1 °C 30.39in /  1029hPa SW 6.2mph /  10km/h 11mph /  17.7km/h 79% 0.00in /  0mm 320 W/m2
10:44 56.9 °F /  13.8 °C 50.5 °F /  10.3 °C 30.39in /  1029hPa SW 4.8mph /  7.7km/h 9mph /  14.5km/h 79% 0.00in /  0mm 309 W/m2
10:49 57.3 °F /  14.1 °C 50.8 °F /  10.4 °C 30.39in /  1029hPa SW 4.2mph /  6.8km/h 10mph /  16.1km/h 79% 0.00in /  0mm 369 W/m2
10:54 57.5 °F /  14.2 °C 50.8 °F /  10.4 °C 30.39in /  1029hPa WSW 6.1mph /  9.8km/h 11mph /  17.7km/h 78.6% 0.00in /  0mm 367 W/m2
10:59 57.2 °F /  14 °C 50.5 °F /  10.3 °C 30.39in /  1029hPa SW 7.1mph /  11.4km/h 15mph /  24.1km/h 78.2% 0.00in /  0mm 392 W/m2
11:04 57.5 °F /  14.2 °C 51 °F /  10.6 °C 30.39in /  1029hPa SW 6.4mph /  10.3km/h 11mph /  17.7km/h 79% 0.00in /  0mm 403 W/m2
11:09 58 °F /  14.4 °C 51.4 °F /  10.8 °C 30.40in /  1029.3hPa SW 4.5mph /  7.2km/h 10mph /  16.1km/h 78.6% 0.00in /  0mm 410 W/m2
11:14 58.3 °F /  14.6 °C 51.4 °F /  10.8 °C 30.40in /  1029.3hPa SW 7mph /  11.3km/h 10mph /  16.1km/h 78% 0.00in /  0mm 418 W/m2
11:19 58.6 °F /  14.8 °C 51.7 °F /  10.9 °C 30.39in /  1029hPa SSW 5.2mph /  8.4km/h 13mph /  20.9km/h 78% 0.00in /  0mm 432 W/m2
11:24 58.8 °F /  14.9 °C 52 °F /  11.1 °C 30.39in /  1029hPa SW 7.8mph /  12.6km/h 13mph /  20.9km/h 78% 0.00in /  0mm 443 W/m2
11:29 59.1 °F /  15.1 °C 51.9 °F /  11.1 °C 30.40in /  1029.3hPa WSW 6.8mph /  10.9km/h 11mph /  17.7km/h 77% 0.00in /  0mm 457 W/m2
11:34 59.4 °F /  15.2 °C 52.2 °F /  11.2 °C 30.40in /  1029.3hPa SW 5.6mph /  9km/h 11mph /  17.7km/h 77% 0.00in /  0mm 441 W/m2
11:39 59.7 °F /  15.4 °C 52.3 °F /  11.3 °C 30.40in /  1029.3hPa SW 7.2mph /  11.6km/h 15mph /  24.1km/h 76.4% 0.00in /  0mm 454 W/m2
11:44 59.6 °F /  15.3 °C 52.4 °F /  11.3 °C 30.40in /  1029.3hPa WSW 7.4mph /  11.9km/h 15mph /  24.1km/h 77% 0.00in /  0mm 475 W/m2
11:49 60.2 °F /  15.7 °C 52.9 °F /  11.6 °C 30.40in /  1029.3hPa SW 6.2mph /  10km/h 12mph /  19.3km/h 76.6% 0.00in /  0mm 508 W/m2
11:54 60.3 °F /  15.7 °C 52.4 °F /  11.3 °C 30.40in /  1029.3hPa SW 8.4mph /  13.5km/h 13mph /  20.9km/h 75.2% 0.00in /  0mm 471 W/m2
11:59 60.3 °F /  15.7 °C 52.3 °F /  11.3 °C 30.40in /  1029.3hPa WSW 8.7mph /  14km/h 14mph /  22.5km/h 75% 0.00in /  0mm 483 W/m2
12:04 60.6 °F /  15.9 °C 53 °F /  11.7 °C 30.40in /  1029.3hPa SW 4.6mph /  7.4km/h 10mph /  16.1km/h 75.8% 0.00in /  0mm 482 W/m2
12:09 61.2 °F /  16.2 °C 53 °F /  11.7 °C 30.40in /  1029.3hPa SW 7mph /  11.3km/h 14mph /  22.5km/h 74.6% 0.00in /  0mm 508 W/m2
12:14 61 °F /  16.1 °C 52.7 °F /  11.5 °C 30.40in /  1029.3hPa SW 8mph /  12.9km/h 13mph /  20.9km/h 74% 0.00in /  0mm 508 W/m2
12:19 61 °F /  16.1 °C 52.7 °F /  11.5 °C 30.40in /  1029.3hPa SW 8.6mph /  13.8km/h 12mph /  19.3km/h 74% 0.00in /  0mm 497 W/m2
12:24 61.2 °F /  16.2 °C 53.1 °F /  11.7 °C 30.40in /  1029.3hPa WSW 6mph /  9.7km/h 13mph /  20.9km/h 74.4% 0.00in /  0mm 515 W/m2
12:29 61.5 °F /  16.4 °C 53.3 °F /  11.8 °C 30.40in /  1029.3hPa WSW 7.8mph /  12.6km/h 11mph /  17.7km/h 74.2% 0.00in /  0mm 524 W/m2
12:34 61.9 °F /  16.6 °C 53.1 °F /  11.7 °C 30.40in /  1029.3hPa SW 6mph /  9.7km/h 13mph /  20.9km/h 73.2% 0.00in /  0mm 527 W/m2
12:39 61.9 °F /  16.6 °C 52.9 °F /  11.6 °C 30.40in /  1029.3hPa WSW 8.4mph /  13.5km/h 14mph /  22.5km/h 72.6% 0.00in /  0mm 564 W/m2
12:44 61.9 °F /  16.6 °C 53 °F /  11.7 °C 30.39in /  1029hPa SW 7.8mph /  12.6km/h 13mph /  20.9km/h 72.8% 0.00in /  0mm 545 W/m2
12:49 62.1 °F /  16.7 °C 53 °F /  11.7 °C 30.39in /  1029hPa WSW 9.5mph /  15.3km/h 15mph /  24.1km/h 72.2% 0.00in /  0mm 527 W/m2
12:54 62 °F /  16.7 °C 52.7 °F /  11.5 °C 30.39in /  1029hPa WSW 9.2mph /  14.8km/h 15mph /  24.1km/h 71.8% 0.00in /  0mm 555 W/m2
12:59 62.1 °F /  16.7 °C 52.9 °F /  11.6 °C 30.39in /  1029hPa WSW 8.2mph /  13.2km/h 16mph /  25.7km/h 72% 0.00in /  0mm 527 W/m2
13:04 62.2 °F /  16.8 °C 53 °F /  11.7 °C 30.39in /  1029hPa WSW 8.4mph /  13.5km/h 14mph /  22.5km/h 72% 0.00in /  0mm 524 W/m2
13:09 62.4 °F /  16.9 °C 53.1 °F /  11.7 °C 30.39in /  1029hPa West 8.4mph /  13.5km/h 14mph /  22.5km/h 71.8% 0.00in /  0mm 536 W/m2
13:14 62.1 °F /  16.7 °C 52.6 °F /  11.4 °C 30.38in /  1028.7hPa WSW 9.2mph /  14.8km/h 14mph /  22.5km/h 71% 0.00in /  0mm 230 W/m2
13:19 62.6 °F /  17 °C 53 °F /  11.7 °C 30.38in /  1028.7hPa SW 7.4mph /  11.9km/h 14mph /  22.5km/h 71% 0.00in /  0mm 619 W/m2
13:24 63 °F /  17.2 °C 53.1 °F /  11.7 °C 30.38in /  1028.7hPa SW 7.5mph /  12.1km/h 13mph /  20.9km/h 70% 0.00in /  0mm 601 W/m2
13:29 62.8 °F /  17.1 °C 53 °F /  11.7 °C 30.38in /  1028.7hPa WSW 7.5mph /  12.1km/h 15mph /  24.1km/h 70.4% 0.00in /  0mm 577 W/m2
13:34 63 °F /  17.2 °C 53.4 °F /  11.9 °C 30.38in /  1028.7hPa WSW 7.5mph /  12.1km/h 13mph /  20.9km/h 71% 0.00in /  0mm 605 W/m2
13:39 62.3 °F /  16.8 °C 52.9 °F /  11.6 °C 30.38in /  1028.7hPa SSW 6.9mph /  11.1km/h 13mph /  20.9km/h 71.4% 0.00in /  0mm 309 W/m2
13:44 62.2 °F /  16.8 °C 53.2 °F /  11.8 °C 30.37in /  1028.3hPa SW 2.8mph /  4.5km/h 10mph /  16.1km/h 72.6% 0.00in /  0mm 309 W/m2
13:49 62.8 °F /  17.1 °C 53.5 °F /  11.9 °C 30.37in /  1028.3hPa SW 7.4mph /  11.9km/h 15mph /  24.1km/h 71.6% 0.00in /  0mm 364 W/m2
13:54 62.6 °F /  17 °C 53.1 °F /  11.7 °C 30.37in /  1028.3hPa SSW 6.8mph /  10.9km/h 13mph /  20.9km/h 71% 0.00in /  0mm 364 W/m2
13:59 62.5 °F /  16.9 °C 53 °F /  11.7 °C 30.37in /  1028.3hPa SW 5mph /  8km/h 9mph /  14.5km/h 71% 0.00in /  0mm 396 W/m2
14:04 62.8 °F /  17.1 °C 53.2 °F /  11.8 °C 30.37in /  1028.3hPa SW 4.4mph /  7.1km/h 10mph /  16.1km/h 71% 0.00in /  0mm 251 W/m2
14:09 62.8 °F /  17.1 °C 53.2 °F /  11.8 °C 30.37in /  1028.3hPa WSW 9.4mph /  15.1km/h 16mph /  25.7km/h 71% 0.00in /  0mm 258 W/m2
14:14 62.5 °F /  16.9 °C 53 °F /  11.7 °C 30.37in /  1028.3hPa WSW 8.5mph /  13.7km/h 16mph /  25.7km/h 71% 0.00in /  0mm 304 W/m2
14:19 62.3 °F /  16.8 °C 52.9 °F /  11.6 °C 30.37in /  1028.3hPa WSW 7.4mph /  11.9km/h 14mph /  22.5km/h 71.2% 0.00in /  0mm 111 W/m2
14:24 62.2 °F /  16.8 °C 52.9 °F /  11.6 °C 30.37in /  1028.3hPa WSW 6.4mph /  10.3km/h 12mph /  19.3km/h 71.4% 0.00in /  0mm 120 W/m2
14:29 62.1 °F /  16.7 °C 52.9 °F /  11.6 °C 30.37in /  1028.3hPa WSW 5mph /  8km/h 12mph /  19.3km/h 72% 0.00in /  0mm 95 W/m2
14:34 62 °F /  16.7 °C 53 °F /  11.7 °C 30.37in /  1028.3hPa SW 8.4mph /  13.5km/h 15mph /  24.1km/h 72.6% 0.00in /  0mm 114 W/m2
14:39 61.3 °F /  16.3 °C 53.2 °F /  11.8 °C 30.36in /  1028hPa SW 4.4mph /  7.1km/h 10mph /  16.1km/h 74.4% 0.00in /  0mm 120 W/m2
14:44 61.2 °F /  16.2 °C 53.2 °F /  11.8 °C 30.36in /  1028hPa SW 5.7mph /  9.2km/h 10mph /  16.1km/h 75% 0.00in /  0mm 90 W/m2
14:49 61.2 °F /  16.2 °C 53.2 °F /  11.8 °C 30.36in /  1028hPa SSW 3.8mph /  6.1km/h 8mph /  12.9km/h 75% 0.00in /  0mm 88 W/m2
14:54 61.3 °F /  16.3 °C 53.4 °F /  11.9 °C 30.36in /  1028hPa SW 4.4mph /  7.1km/h 8mph /  12.9km/h 75% 0.00in /  0mm 155 W/m2
14:59 61.5 °F /  16.4 °C 53.6 °F /  12 °C 30.36in /  1028hPa SW 5.1mph /  8.2km/h 8mph /  12.9km/h 75% 0.00in /  0mm 513 W/m2
15:04 61.8 °F /  16.6 °C 53.8 °F /  12.1 °C 30.36in /  1028hPa WSW 3.3mph /  5.3km/h 9mph /  14.5km/h 75% 0.00in /  0mm 207 W/m2
15:09 62.1 °F /  16.7 °C 53.8 °F /  12.1 °C 30.35in /  1027.7hPa SW 5.6mph /  9km/h 11mph /  17.7km/h 74.4% 0.00in /  0mm 490 W/m2
15:14 62.8 °F /  17.1 °C 54.1 °F /  12.3 °C 30.35in /  1027.7hPa WSW 5mph /  8km/h 11mph /  17.7km/h 73.4% 0.00in /  0mm 418 W/m2
15:19 63.3 °F /  17.4 °C 54.1 °F /  12.3 °C 30.35in /  1027.7hPa SW 8mph /  12.9km/h 11mph /  17.7km/h 71.8% 0.00in /  0mm 424 W/m2
15:24 63.7 °F /  17.6 °C 54 °F /  12.2 °C 30.35in /  1027.7hPa SW 5.2mph /  8.4km/h 10mph /  16.1km/h 70.6% 0.00in /  0mm 413 W/m2
15:29 64.6 °F /  18.1 °C 54.3 °F /  12.4 °C 30.35in /  1027.7hPa WSW 6.8mph /  10.9km/h 12mph /  19.3km/h 69.2% 0.00in /  0mm 429 W/m2
15:34 63.9 °F /  17.7 °C 53.2 °F /  11.8 °C 30.35in /  1027.7hPa WSW 4.5mph /  7.2km/h 10mph /  16.1km/h 68.4% 0.00in /  0mm 209 W/m2
15:39 63.7 °F /  17.6 °C 53.5 °F /  11.9 °C 30.35in /  1027.7hPa WSW 5.5mph /  8.9km/h 10mph /  16.1km/h 69.4% 0.00in /  0mm 497 W/m2
15:44 64.4 °F /  18 °C 53.9 °F /  12.2 °C 30.34in /  1027.3hPa SW 6.7mph /  10.8km/h 15mph /  24.1km/h 68.8% 0.00in /  0mm 473 W/m2
15:49 64.6 °F /  18.1 °C 53.7 °F /  12.1 °C 30.35in /  1027.7hPa WSW 8.8mph /  14.2km/h 15mph /  24.1km/h 67.6% 0.00in /  0mm 394 W/m2
15:54 64.7 °F /  18.2 °C 53.5 °F /  11.9 °C 30.34in /  1027.3hPa SW 9mph /  14.5km/h 13mph /  20.9km/h 67% 0.00in /  0mm 359 W/m2
15:59 64.6 °F /  18.1 °C 53.3 °F /  11.8 °C 30.34in /  1027.3hPa SW 7.9mph /  12.7km/h 17mph /  27.4km/h 66.8% 0.00in /  0mm 343 W/m2
16:04 64.4 °F /  18 °C 53.2 °F /  11.8 °C 30.34in /  1027.3hPa SW 6.2mph /  10km/h 14mph /  22.5km/h 67% 0.00in /  0mm 329 W/m2
16:09 64.6 °F /  18.1 °C 53.6 °F /  12 °C 30.34in /  1027.3hPa WSW 6.1mph /  9.8km/h 11mph /  17.7km/h 67.4% 0.00in /  0mm 320 W/m2
16:14 64.6 °F /  18.1 °C 53.4 °F /  11.9 °C 30.34in /  1027.3hPa WSW 8.4mph /  13.5km/h 14mph /  22.5km/h 67% 0.00in /  0mm 313 W/m2
16:19 64.2 °F /  17.9 °C 53 °F /  11.7 °C 30.34in /  1027.3hPa SW 10.2mph /  16.4km/h 14mph /  22.5km/h 67% 0.00in /  0mm 330 W/m2
16:24 64 °F /  17.8 °C 53 °F /  11.7 °C 30.34in /  1027.3hPa SW 5.5mph /  8.9km/h 12mph /  19.3km/h 67.6% 0.00in /  0mm 330 W/m2
16:29 63.7 °F /  17.6 °C 53.1 °F /  11.7 °C 30.33in /  1027hPa SW 4.8mph /  7.7km/h 9mph /  14.5km/h 68.4% 0.00in /  0mm 113 W/m2
16:34 63.7 °F /  17.6 °C 53.2 °F /  11.8 °C 30.33in /  1027hPa WSW 5.8mph /  9.3km/h 11mph /  17.7km/h 69% 0.00in /  0mm 113 W/m2
16:39 63.4 °F /  17.4 °C 53.1 °F /  11.7 °C 30.33in /  1027hPa SW 7.6mph /  12.2km/h 11mph /  17.7km/h 69% 0.00in /  0mm 81 W/m2
16:44 63.3 °F /  17.4 °C 53.1 °F /  11.7 °C 30.33in /  1027hPa SW 6.8mph /  10.9km/h 10mph /  16.1km/h 69% 0.00in /  0mm 121 W/m2
16:49 63.3 °F /  17.4 °C 53.1 °F /  11.7 °C 30.33in /  1027hPa SW 6.8mph /  10.9km/h 13mph /  20.9km/h 69% 0.00in /  0mm 100 W/m2
16:54 63.1 °F /  17.3 °C 52.9 °F /  11.6 °C 30.33in /  1027hPa SW 6.6mph /  10.6km/h 12mph /  19.3km/h 69% 0.00in /  0mm 77 W/m2
16:59 63.1 °F /  17.3 °C 53 °F /  11.7 °C 30.33in /  1027hPa SW 3.7mph /  6km/h 9mph /  14.5km/h 69.4% 0.00in /  0mm 60 W/m2
17:04 63.1 °F /  17.3 °C 53.1 °F /  11.7 °C 30.33in /  1027hPa WSW 5.1mph /  8.2km/h 10mph /  16.1km/h 69.8% 0.00in /  0mm 63 W/m2
17:09 63.1 °F /  17.3 °C 53.2 °F /  11.8 °C 30.32in /  1026.6hPa SW 4.4mph /  7.1km/h 10mph /  16.1km/h 70% 0.00in /  0mm 58 W/m2
17:14 63.1 °F /  17.3 °C 53.2 °F /  11.8 °C 30.32in /  1026.6hPa SW 3.5mph /  5.6km/h 8mph /  12.9km/h 70% 0.00in /  0mm 54 W/m2
17:19 63.1 °F /  17.3 °C 53.2 °F /  11.8 °C 30.32in /  1026.6hPa WSW 5.6mph /  9km/h 12mph /  19.3km/h 70% 0.00in /  0mm 51 W/m2
17:24 63.1 °F /  17.3 °C 52.8 °F /  11.6 °C 30.32in /  1026.6hPa SW 7.6mph /  12.2km/h 13mph /  20.9km/h 69% 0.00in /  0mm 62 W/m2
17:29 63.1 °F /  17.3 °C 52.4 °F /  11.3 °C 30.32in /  1026.6hPa SW 5.9mph /  9.5km/h 11mph /  17.7km/h 68.2% 0.00in /  0mm 69 W/m2
17:34 63.2 °F /  17.3 °C 52.7 °F /  11.5 °C 30.32in /  1026.6hPa SW 7.2mph /  11.6km/h 11mph /  17.7km/h 68.6% 0.00in /  0mm 90 W/m2
17:39 63.1 °F /  17.3 °C 52.5 °F /  11.4 °C 30.32in /  1026.6hPa WSW 6.6mph /  10.6km/h 12mph /  19.3km/h 68.4% 0.00in /  0mm 65 W/m2
17:44 63.1 °F /  17.3 °C 52.8 °F /  11.6 °C 30.32in /  1026.6hPa WSW 4.6mph /  7.4km/h 12mph /  19.3km/h 68.8% 0.00in /  0mm 44 W/m2
17:49 63 °F /  17.2 °C 52.7 °F /  11.5 °C 30.32in /  1026.6hPa SW 5.3mph /  8.5km/h 9mph /  14.5km/h 69.2% 0.00in /  0mm 37 W/m2
17:54 62.8 °F /  17.1 °C 52.9 °F /  11.6 °C 30.32in /  1026.6hPa SW 5.2mph /  8.4km/h 9mph /  14.5km/h 70% 0.00in /  0mm 35 W/m2
17:59 62.7 °F /  17.1 °C 52.8 °F /  11.6 °C 30.32in /  1026.6hPa SW 6.2mph /  10km/h 9mph /  14.5km/h 70% 0.00in /  0mm 33 W/m2
18:04 62.5 °F /  16.9 °C 52.6 °F /  11.4 °C 30.32in /  1026.6hPa SW 4.5mph /  7.2km/h 9mph /  14.5km/h 70% 0.00in /  0mm 35 W/m2
18:09 62.4 °F /  16.9 °C 52.7 °F /  11.5 °C 30.32in /  1026.6hPa WSW 3.6mph /  5.8km/h 8mph /  12.9km/h 70.6% 0.00in /  0mm 32 W/m2
18:14 62.2 °F /  16.8 °C 52.7 °F /  11.5 °C 30.32in /  1026.6hPa WSW 4mph /  6.4km/h 8mph /  12.9km/h 71% 0.00in /  0mm 19 W/m2
18:19 62.1 °F /  16.7 °C 52.5 °F /  11.4 °C 30.32in /  1026.6hPa SW 4.6mph /  7.4km/h 8mph /  12.9km/h 71% 0.00in /  0mm 19 W/m2
18:23 61.9 °F /  16.6 °C 52.6 °F /  11.4 °C 30.32in /  1026.6hPa SW 2.7mph /  4.3km/h 8mph /  12.9km/h 71.8% 0.00in /  0mm 14 W/m2
18:29 61.8 °F /  16.6 °C 52.5 °F /  11.4 °C 30.32in /  1026.6hPa SW 4.1mph /  6.6km/h 8mph /  12.9km/h 71.8% 0.00in /  0mm 9 W/m2
18:34 61.5 °F /  16.4 °C 52.3 °F /  11.3 °C 30.31in /  1026.3hPa SW 3mph /  4.8km/h 6mph /  9.7km/h 72% 0.00in /  0mm 5 W/m2
18:39 61.2 °F /  16.2 °C 52.5 °F /  11.4 °C 30.32in /  1026.6hPa SW 2.8mph /  4.5km/h 5mph /  8km/h 72.8% 0.00in /  0mm 0 W/m2
18:44 61 °F /  16.1 °C 52.3 °F /  11.3 °C 30.32in /  1026.6hPa SW 3.1mph /  5km/h 5mph /  8km/h 73% 0.00in /  0mm 0 W/m2
18:49 60.7 °F /  15.9 °C 52.3 °F /  11.3 °C 30.32in /  1026.6hPa SW 3.1mph /  5km/h 5mph /  8km/h 73.6% 0.00in /  0mm 0 W/m2
18:54 60.4 °F /  15.8 °C 52.2 °F /  11.2 °C 30.32in /  1026.6hPa SW 2.7mph /  4.3km/h 5mph /  8km/h 74.2% 0.00in /  0mm 0 W/m2
18:59 60.2 °F /  15.7 °C 52.3 °F /  11.3 °C 30.32in /  1026.6hPa SW 2.8mph /  4.5km/h 5mph /  8km/h 75% 0.00in /  0mm 0 W/m2
19:04 59.9 °F /  15.5 °C 52.2 °F /  11.2 °C 30.32in /  1026.6hPa SW 2.6mph /  4.2km/h 5mph /  8km/h 75.4% 0.00in /  0mm 0 W/m2
19:09 59.7 °F /  15.4 °C 52.2 °F /  11.2 °C 30.32in /  1026.6hPa SW 3.7mph /  6km/h 6mph /  9.7km/h 76% 0.00in /  0mm 0 W/m2
19:14 59.5 °F /  15.3 °C 52.2 °F /  11.2 °C 30.32in /  1026.6hPa SW 3.6mph /  5.8km/h 6mph /  9.7km/h 76.6% 0.00in /  0mm 0 W/m2
19:19 59.4 °F /  15.2 °C 52.3 °F /  11.3 °C 30.32in /  1026.6hPa SW 5.8mph /  9.3km/h 13mph /  20.9km/h 77.2% 0.00in /  0mm 0 W/m2
19:24 59.4 °F /  15.2 °C 52.6 °F /  11.4 °C 30.32in /  1026.6hPa SW 5.4mph /  8.7km/h 11mph /  17.7km/h 78% 0.00in /  0mm 0 W/m2
19:29 59.3 °F /  15.2 °C 52.4 °F /  11.3 °C 30.32in /  1026.6hPa SW 4.9mph /  7.9km/h 8mph /  12.9km/h 78% 0.00in /  0mm 0 W/m2
19:34 59.2 °F /  15.1 °C 52.7 °F /  11.5 °C 30.32in /  1026.6hPa SW 4.8mph /  7.7km/h 9mph /  14.5km/h 79% 0.00in /  0mm 0 W/m2
19:39 59 °F /  15 °C 52.5 °F /  11.4 °C 30.32in /  1026.6hPa SW 5.2mph /  8.4km/h 11mph /  17.7km/h 79% 0.00in /  0mm 0 W/m2
19:44 58.8 °F /  14.9 °C 52.3 °F /  11.3 °C 30.32in /  1026.6hPa SW 3.6mph /  5.8km/h 7mph /  11.3km/h 79% 0.00in /  0mm 0 W/m2
19:49 58.6 °F /  14.8 °C 52.5 °F /  11.4 °C 30.32in /  1026.6hPa SW 4.2mph /  6.8km/h 8mph /  12.9km/h 80% 0.00in /  0mm 0 W/m2
19:54 58.6 °F /  14.8 °C 52.4 °F /  11.3 °C 30.32in /  1026.6hPa SW 3.7mph /  6km/h 6mph /  9.7km/h 80% 0.00in /  0mm 0 W/m2
19:59 58.5 °F /  14.7 °C 52.7 °F /  11.5 °C 30.32in /  1026.6hPa SW 3.6mph /  5.8km/h 5mph /  8km/h 81% 0.00in /  0mm 0 W/m2
20:04 58.3 °F /  14.6 °C 52.5 °F /  11.4 °C 30.32in /  1026.6hPa SW 4mph /  6.4km/h 9mph /  14.5km/h 81% 0.00in /  0mm 0 W/m2
20:09 58 °F /  14.4 °C 52.4 °F /  11.3 °C 30.32in /  1026.6hPa SW 2.3mph /  3.7km/h 6mph /  9.7km/h 81.6% 0.00in /  0mm 0 W/m2
20:14 57.8 °F /  14.3 °C 52.4 °F /  11.3 °C 30.32in /  1026.6hPa SSW 3.6mph /  5.8km/h 6mph /  9.7km/h 82% 0.00in /  0mm 0 W/m2
20:19 57.6 °F /  14.2 °C 52.2 °F /  11.2 °C 30.32in /  1026.6hPa SSW 2.8mph /  4.5km/h 6mph /  9.7km/h 82% 0.00in /  0mm 0 W/m2
20:24 57.7 °F /  14.3 °C 52.5 °F /  11.4 °C 30.32in /  1026.6hPa SSW 2.5mph /  4km/h 5mph /  8km/h 82.8% 0.00in /  0mm 0 W/m2
20:29 57.6 °F /  14.2 °C 52.5 °F /  11.4 °C 30.32in /  1026.6hPa SSW 2.5mph /  4km/h 6mph /  9.7km/h 83% 0.00in /  0mm 0 W/m2
20:34 57.6 °F /  14.2 °C 52.5 °F /  11.4 °C 30.32in /  1026.6hPa SW 1.3mph /  2.1km/h 6mph /  9.7km/h 83% 0.00in /  0mm 0 W/m2
20:39 57.6 °F /  14.2 °C 52.5 °F /  11.4 °C 30.32in /  1026.6hPa SW 2.9mph /  4.7km/h 6mph /  9.7km/h 83% 0.00in /  0mm 0 W/m2
20:44 57.5 °F /  14.2 °C 52.4 °F /  11.3 °C 30.32in /  1026.6hPa SW 2.4mph /  3.9km/h 5mph /  8km/h 83% 0.00in /  0mm 0 W/m2
20:49 57.5 °F /  14.2 °C 52.4 °F /  11.3 °C 30.32in /  1026.6hPa SSW 2mph /  3.2km/h 8mph /  12.9km/h 83% 0.00in /  0mm 0 W/m2
20:54 57.6 °F /  14.2 °C 52.5 °F /  11.4 °C 30.32in /  1026.6hPa SSW 2.9mph /  4.7km/h 5mph /  8km/h 83% 0.00in /  0mm 0 W/m2
20:59 57.4 °F /  14.1 °C 52.3 °F /  11.3 °C 30.32in /  1026.6hPa SSW 2.1mph /  3.4km/h 6mph /  9.7km/h 83% 0.00in /  0mm 0 W/m2
21:04 57.4 °F /  14.1 °C 52.3 °F /  11.3 °C 30.32in /  1026.6hPa SSW 3.5mph /  5.6km/h 8mph /  12.9km/h 83% 0.00in /  0mm 0 W/m2
21:09 57.4 °F /  14.1 °C 52.3 °F /  11.3 °C 30.32in /  1026.6hPa SSW 2.9mph /  4.7km/h 7mph /  11.3km/h 83% 0.00in /  0mm 0 W/m2
21:14 57.4 °F /  14.1 °C 52.3 °F /  11.3 °C 30.32in /  1026.6hPa SSW 3.2mph /  5.1km/h 7mph /  11.3km/h 83% 0.00in /  0mm 0 W/m2
21:19 57.1 °F /  13.9 °C 52.1 °F /  11.2 °C 30.32in /  1026.6hPa SW 6.5mph /  10.5km/h 10mph /  16.1km/h 83% 0.00in /  0mm 0 W/m2
21:24 57 °F /  13.9 °C 52 °F /  11.1 °C 30.32in /  1026.6hPa SW 5.8mph /  9.3km/h 14mph /  22.5km/h 83% 0.00in /  0mm 0 W/m2
21:29 56.8 °F /  13.8 °C 52 °F /  11.1 °C 30.32in /  1026.6hPa SW 6.8mph /  10.9km/h 14mph /  22.5km/h 84% 0.00in /  0mm 0 W/m2
21:34 56.7 °F /  13.7 °C 51.8 °F /  11 °C 30.32in /  1026.6hPa SW 6.3mph /  10.1km/h 9mph /  14.5km/h 84% 0.00in /  0mm 0 W/m2
21:39 56.7 °F /  13.7 °C 51.8 °F /  11 °C 30.32in /  1026.6hPa SW 6.2mph /  10km/h 10mph /  16.1km/h 84% 0.00in /  0mm 0 W/m2
21:44 56.5 °F /  13.6 °C 51.6 °F /  10.9 °C 30.32in /  1026.6hPa SW 5mph /  8km/h 8mph /  12.9km/h 84% 0.00in /  0mm 0 W/m2
21:49 56.4 °F /  13.6 °C 51.9 °F /  11.1 °C 30.32in /  1026.6hPa SW 5.3mph /  8.5km/h 10mph /  16.1km/h 85% 0.00in /  0mm 0 W/m2
21:54 56.2 °F /  13.4 °C 51.7 °F /  10.9 °C 30.32in /  1026.6hPa SW 3.5mph /  5.6km/h 9mph /  14.5km/h 85% 0.00in /  0mm 0 W/m2
21:59 56.1 °F /  13.4 °C 51.6 °F /  10.9 °C 30.32in /  1026.6hPa SW 4.9mph /  7.9km/h 9mph /  14.5km/h 85% 0.00in /  0mm 0 W/m2
22:04 56 °F /  13.3 °C 51.5 °F /  10.8 °C 30.32in /  1026.6hPa SW 4.5mph /  7.2km/h 9mph /  14.5km/h 85% 0.00in /  0mm 0 W/m2
22:09 55.9 °F /  13.3 °C 51.4 °F /  10.8 °C 30.32in /  1026.6hPa SW 2mph /  3.2km/h 9mph /  14.5km/h 85% 0.00in /  0mm 0 W/m2
22:14 55.7 °F /  13.2 °C 51.5 °F /  10.8 °C 30.32in /  1026.6hPa WSW 2.2mph /  3.5km/h 6mph /  9.7km/h 85.8% 0.00in /  0mm 0 W/m2
22:19 55.6 °F /  13.1 °C 51.4 °F /  10.8 °C 30.32in /  1026.6hPa SW 2.7mph /  4.3km/h 7mph /  11.3km/h 86% 0.00in /  0mm 0 W/m2
22:24 55.5 °F /  13.1 °C 51.4 °F /  10.8 °C 30.32in /  1026.6hPa SW 2.4mph /  3.9km/h 7mph /  11.3km/h 86% 0.00in /  0mm 0 W/m2
22:29 55.4 °F /  13 °C 51.2 °F /  10.7 °C 30.32in /  1026.6hPa SW 2.2mph /  3.5km/h 6mph /  9.7km/h 86% 0.00in /  0mm 0 W/m2
22:34 55.4 °F /  13 °C 51.3 °F /  10.7 °C 30.31in /  1026.3hPa SW 2.9mph /  4.7km/h 9mph /  14.5km/h 86% 0.00in /  0mm 0 W/m2
22:39 55.4 °F /  13 °C 51.4 °F /  10.8 °C 30.31in /  1026.3hPa SW 2.6mph /  4.2km/h 5mph /  8km/h 86.4% 0.00in /  0mm 0 W/m2
22:44 55.3 °F /  12.9 °C 51.5 °F /  10.8 °C 30.31in /  1026.3hPa SW 2.3mph /  3.7km/h 5mph /  8km/h 87% 0.00in /  0mm 0 W/m2
22:49 55.2 °F /  12.9 °C 51.4 °F /  10.8 °C 30.31in /  1026.3hPa SW 2mph /  3.2km/h 6mph /  9.7km/h 87% 0.00in /  0mm 0 W/m2
22:54 55.3 °F /  12.9 °C 51.5 °F /  10.8 °C 30.30in /  1026hPa SSW 2.1mph /  3.4km/h 5mph /  8km/h 87% 0.00in /  0mm 0 W/m2
22:59 55.2 °F /  12.9 °C 51.4 °F /  10.8 °C 30.30in /  1026hPa SW 2.5mph /  4km/h 5mph /  8km/h 87% 0.00in /  0mm 0 W/m2
23:04 55.2 °F /  12.9 °C 51.4 °F /  10.8 °C 30.30in /  1026hPa SW 1.7mph /  2.7km/h 5mph /  8km/h 87% 0.00in /  0mm 0 W/m2
23:09 55 °F /  12.8 °C 51.3 °F /  10.7 °C 30.30in /  1026hPa SW 1.2mph /  1.9km/h 5mph /  8km/h 87% 0.00in /  0mm 0 W/m2
23:14 55 °F /  12.8 °C 51.3 °F /  10.7 °C 30.30in /  1026hPa SW 1.6mph /  2.6km/h 4mph /  6.4km/h 87% 0.00in /  0mm 0 W/m2
23:19 55 °F /  12.8 °C 51.2 °F /  10.7 °C 30.29in /  1025.6hPa SW 1.3mph /  2.1km/h 3mph /  4.8km/h 87% 0.00in /  0mm 0 W/m2
23:24 55 °F /  12.8 °C 51.3 °F /  10.7 °C 30.29in /  1025.6hPa SSW 2.1mph /  3.4km/h 5mph /  8km/h 87% 0.00in /  0mm 0 W/m2
23:29 55 °F /  12.8 °C 51.3 °F /  10.7 °C 30.29in /  1025.6hPa SSW 1.6mph /  2.6km/h 7mph /  11.3km/h 87% 0.00in /  0mm 0 W/m2
23:34 55 °F /  12.8 °C 51.3 °F /  10.7 °C 30.29in /  1025.6hPa SW 2mph /  3.2km/h 7mph /  11.3km/h 87% 0.00in /  0mm 0 W/m2
23:39 55 °F /  12.8 °C 51.3 °F /  10.7 °C 30.29in /  1025.6hPa SW 2mph /  3.2km/h 5mph /  8km/h 87% 0.00in /  0mm 0 W/m2
23:44 54.9 °F /  12.7 °C 51.2 °F /  10.7 °C 30.29in /  1025.6hPa SW 0.6mph /  1km/h 3mph /  4.8km/h 87% 0.00in /  0mm 0 W/m2
23:49 54.9 °F /  12.7 °C 51.1 °F /  10.6 °C 30.28in /  1025.3hPa WSW 3mph /  4.8km/h 7mph /  11.3km/h 87% 0.00in /  0mm 0 W/m2
23:54 54.9 °F /  12.7 °C 51.1 °F /  10.6 °C 30.28in /  1025.3hPa West 2.9mph /  4.7km/h 6mph /  9.7km/h 87% 0.00in /  0mm 0 W/m2
23:59 54.7 °F /  12.6 °C 51.3 °F /  10.7 °C 30.28in /  1025.3hPa WNW 2.9mph /  4.7km/h 7mph /  11.3km/h 88% 0.00in /  0mm 0 W/m2
Bath Spa Weather
Compliments of Weather Underground - 2 mb